Time;durP1;ratioP1;P1;durP2;ratioP2;P2;SDS_P1;SDS_P2;PMS_P1;PMS_P2;Temp;Humidity;BMP_temperature;BMP_pressure;BME280_temperature;BME280_humidity;BME280_pressure;Samples;Min_cycle;Max_cycle;Signal;HPM_P1;HPM_P2
2022/01/22 00:00:54;;;;;;;986.90;385.00;;;7.40;99.90;;;;;;4976021;28;20055;-87
2022/01/22 00:03:20;;;;;;;979.97;381.52;;;6.40;99.90;;;;;;4972656;28;20035;-90
2022/01/22 00:05:55;;;;;;;972.47;376.50;;;6.50;99.90;;;;;;4974526;28;20038;-88
2022/01/22 00:08:20;;;;;;;978.15;382.48;;;6.70;99.90;;;;;;4979121;28;20077;-88
2022/01/22 00:10:50;;;;;;;978.55;381.15;;;6.50;99.90;;;;;;4977348;28;20355;-91
2022/01/22 00:15:45;;;;;;;972.78;377.98;;;6.50;99.90;;;;;;4974160;28;20065;-87
2022/01/22 00:18:11;;;;;;;978.33;383.70;;;5.50;99.90;;;;;;4972307;28;20046;-89
2022/01/22 00:20:38;;;;;;;975.90;378.98;;;6.50;99.90;;;;;;4968372;28;20069;-91
2022/01/22 00:23:04;;;;;;;977.00;381.63;;;6.40;99.90;;;;;;4978177;28;20450;-85
2022/01/22 00:25:33;;;;;;;976.45;381.23;;;6.40;99.90;;;;;;4961391;28;20483;-87
2022/01/22 00:28:02;;;;;;;973.25;381.67;;;6.70;99.90;;;;;;4972458;28;20046;-88
2022/01/22 00:30:28;;;;;;;972.72;379.95;;;6.40;99.90;;;;;;4985612;28;20046;-86
2022/01/22 00:33:20;;;;;;;979.65;383.35;;;6.30;99.90;;;;;;4973083;28;20041;-88
2022/01/22 00:35:46;;;;;;;977.00;383.75;;;6.90;99.90;;;;;;4956560;28;20055;-87
2022/01/22 00:38:14;;;;;;;976.13;381.65;;;6.40;99.90;;;;;;4973454;28;20043;-89
2022/01/22 00:40:40;;;;;;;977.92;383.52;;;6.40;99.90;;;;;;4962381;28;20054;-89
2022/01/22 00:43:14;;;;;;;983.88;390.50;;;6.50;99.90;;;;;;4976290;28;20460;-89
2022/01/22 00:45:40;;;;;;;983.83;389.10;;;8.40;99.90;;;;;;4973119;28;20133;-91
2022/01/22 00:48:07;;;;;;;980.33;387.48;;;6.40;99.90;;;;;;4987089;28;20062;-90
2022/01/22 00:50:33;;;;;;;984.10;391.52;;;6.40;99.90;;;;;;4974926;28;20142;-89
2022/01/22 00:52:58;;;;;;;986.30;391.48;;;7.40;99.90;;;;;;4972827;28;20110;-90
2022/01/22 00:55:24;;;;;;;985.92;390.10;;;7.20;99.90;;;;;;4972497;28;20054;-89
2022/01/22 00:57:55;;;;;;;982.17;385.02;;;6.40;99.90;;;;;;4979893;28;20030;-89
2022/01/22 01:00:21;;;;;;;980.33;382.08;;;6.40;99.90;;;;;;4977582;28;20125;-91
2022/01/22 01:02:50;;;;;;;979.53;384.92;;;7.40;99.90;;;;;;4973580;28;20125;-88
2022/01/22 01:05:15;;;;;;;975.17;377.67;;;6.70;99.90;;;;;;4972317;28;20050;-90
2022/01/22 01:07:44;;;;;;;981.55;384.92;;;6.50;99.90;;;;;;4966900;28;20081;-88
2022/01/22 01:10:14;;;;;;;989.47;393.42;;;5.50;99.90;;;;;;4971575;28;20449;-87
2022/01/22 01:12:41;;;;;;;977.53;378.88;;;6.90;99.90;;;;;;4963026;28;20051;-89
2022/01/22 01:34:29;;;;;;;987.25;389.83;;;6.50;99.90;;;;;;4961577;28;20050;-90
2022/01/22 01:36:48;;;;;;;983.40;386.08;;;6.40;99.90;;;;;;4980638;28;20530;-88
2022/01/22 01:39:29;;;;;;;994.97;387.50;;;6.50;99.90;;;;;;4972395;28;20051;-87
2022/01/22 01:42:01;;;;;;;988.60;393.55;;;6.40;99.90;;;;;;4973141;28;20038;-95
2022/01/22 01:44:28;;;;;;;981.55;384.50;;;6.40;99.90;;;;;;4971744;28;20053;-87
2022/01/22 01:47:00;;;;;;;989.10;393.40;;;6.40;99.90;;;;;;4976063;28;20053;-89
2022/01/22 01:49:27;;;;;;;989.63;391.85;;;6.40;99.90;;;;;;4960764;28;20046;-88
2022/01/22 01:51:56;;;;;;;982.60;385.65;;;6.40;99.90;;;;;;4963070;28;20070;-89
2022/01/22 01:59:37;;;;;;;986.92;391.20;;;6.40;99.90;;;;;;4971306;28;20058;-88
2022/01/22 02:02:04;;;;;;;986.30;388.08;;;6.40;99.90;;;;;;4963423;28;20499;-86
2022/01/22 02:04:29;;;;;;;984.33;388.63;;;6.40;99.90;;;;;;4966058;28;20536;-86
2022/01/22 02:06:56;;;;;;;980.42;385.35;;;6.40;99.90;;;;;;4970789;28;20042;-90
2022/01/22 02:09:22;;;;;;;986.63;389.58;;;6.40;99.90;;;;;;4971915;28;20043;-88
2022/01/22 02:11:56;;;;;;;991.47;395.40;;;6.40;99.90;;;;;;4977093;28;20057;-89
2022/01/22 02:25:18;;;;;;;989.92;394.27;;;6.30;99.90;;;;;;4968884;28;20047;-86
2022/01/22 02:27:44;;;;;;;989.55;393.38;;;6.30;99.90;;;;;;4971064;28;20583;-87
2022/01/22 02:30:18;;;;;;;990.80;395.38;;;6.30;99.90;;;;;;4974106;28;20062;-85
2022/01/22 02:35:33;;;;;;;989.08;392.55;;;6.20;99.90;;;;;;4970651;28;20161;-88
2022/01/22 02:38:05;;;;;;;993.50;398.23;;;6.30;99.90;;;;;;4970333;28;20482;-86
2022/01/22 02:40:39;;;;;;;992.58;396.40;;;6.20;99.90;;;;;;4967251;28;20444;-87
2022/01/22 02:43:04;;;;;;;994.72;396.63;;;6.20;99.90;;;;;;4975306;28;20149;-85
2022/01/22 02:45:31;;;;;;;986.40;387.85;;;6.20;99.90;;;;;;4966687;28;20149;-86
2022/01/22 02:47:57;;;;;;;992.58;396.45;;;6.20;99.90;;;;;;4966987;28;20039;-94
2022/01/22 02:50:23;;;;;;;990.88;395.40;;;6.20;99.90;;;;;;4971095;28;20495;-86
2022/01/22 02:52:48;;;;;;;977.75;388.27;;;6.20;99.90;;;;;;4968082;28;20371;-86
2022/01/22 02:55:15;;;;;;;982.55;389.17;;;6.20;99.90;;;;;;4969110;28;20042;-86
2022/01/22 02:57:43;;;;;;;989.97;394.58;;;6.20;99.90;;;;;;4968980;28;20070;-85
2022/01/22 03:00:22;;;;;;;987.00;390.73;;;6.20;99.90;;;;;;4970311;28;20554;-87
2022/01/22 03:02:48;;;;;;;989.38;393.48;;;6.20;99.90;;;;;;4964475;28;20670;-85
2022/01/22 03:05:14;;;;;;;993.47;399.05;;;6.20;99.90;;;;;;4968386;28;20043;-85
2022/01/22 03:07:41;;;;;;;992.83;396.63;;;6.20;99.90;;;;;;4969189;28;20113;-88
2022/01/22 03:10:08;;;;;;;990.90;394.27;;;6.10;99.90;;;;;;4968733;28;20124;-86
2022/01/22 03:27:52;;;;;;;997.38;400.65;;;6.20;99.90;;;;;;4975612;28;20058;-86
2022/01/22 03:30:18;;;;;;;987.60;390.70;;;6.20;99.90;;;;;;4969530;28;20395;-88
2022/01/22 03:32:51;;;;;;;995.15;399.73;;;6.20;99.90;;;;;;4973947;28;20517;-86
2022/01/22 03:37:44;;;;;;;994.33;394.15;;;6.20;99.90;;;;;;4957710;28;20051;-88
2022/01/22 03:40:13;;;;;;;998.28;403.27;;;6.20;99.90;;;;;;4968098;28;20054;-87
2022/01/22 03:42:39;;;;;;;1000.90;404.50;;;6.20;99.90;;;;;;4968003;28;20129;-85
2022/01/22 03:45:08;;;;;;;999.08;401.23;;;6.20;99.90;;;;;;4969519;28;20133;-87
2022/01/22 03:47:34;;;;;;;1004.85;410.65;;;6.20;99.90;;;;;;4970487;28;20057;-87
2022/01/22 03:49:59;;;;;;;1004.72;407.85;;;6.20;99.90;;;;;;4961968;28;20040;-86
2022/01/22 03:52:25;;;;;;;1001.30;407.48;;;6.20;99.90;;;;;;4963735;28;20035;-88
2022/01/22 03:54:50;;;;;;;1001.88;403.35;;;6.20;99.90;;;;;;4962394;28;20038;-86
2022/01/22 03:57:16;;;;;;;1016.83;416.33;;;6.20;99.90;;;;;;4970710;28;20039;-88
2022/01/22 03:59:43;;;;;;;985.47;394.85;;;6.20;99.90;;;;;;4976601;28;20035;-88
2022/01/22 04:04:59;;;;;;;986.97;391.67;;;6.20;99.90;;;;;;4938120;28;20142;-87
2022/01/22 04:09:59;;;;;;;990.65;392.92;;;6.20;99.90;;;;;;4969829;28;20046;-86
2022/01/22 04:12:43;;;;;;;983.67;389.45;;;6.20;99.90;;;;;;4967431;28;20490;-92
2022/01/22 04:15:12;;;;;;;995.75;396.65;;;6.20;99.90;;;;;;4962121;28;20046;-87
2022/01/22 04:25:38;;;;;;;992.10;398.13;;;6.20;99.90;;;;;;4971420;28;20046;-87
2022/01/22 04:28:04;;;;;;;999.08;401.35;;;6.10;99.90;;;;;;4981720;28;20058;-88
2022/01/22 04:30:30;;;;;;;994.75;399.25;;;6.10;99.90;;;;;;4972536;28;20074;-88
2022/01/22 04:32:56;;;;;;;999.55;400.13;;;6.10;99.90;;;;;;4955447;28;20034;-85
2022/01/22 04:35:24;;;;;;;990.03;392.25;;;6.10;99.90;;;;;;4969406;28;20475;-84
2022/01/22 04:37:50;;;;;;;996.55;405.25;;;6.10;99.90;;;;;;4970374;28;20061;-87
2022/01/22 04:40:16;;;;;;;997.05;400.20;;;6.10;99.90;;;;;;4971535;28;20038;-85
2022/01/22 04:42:43;;;;;;;999.95;405.67;;;6.10;99.90;;;;;;4966635;28;20046;-86
2022/01/22 04:45:30;;;;;;;990.97;395.17;;;6.10;99.90;;;;;;4964307;28;20059;-86
2022/01/22 04:55:39;;;;;;;992.13;392.48;;;6.10;99.90;;;;;;4985185;28;20134;-84
2022/01/22 04:58:07;;;;;;;996.08;398.75;;;6.10;99.90;;;;;;4968506;28;20042;-86
2022/01/22 05:00:37;;;;;;;998.75;399.05;;;6.10;99.90;;;;;;4974130;28;20439;-87
2022/01/22 05:03:04;;;;;;;1016.83;407.15;;;6.20;99.90;;;;;;4969388;28;20145;-87
2022/01/22 05:05:30;;;;;;;1004.38;408.75;;;6.10;99.90;;;;;;4967756;28;20038;-87
2022/01/22 05:07:56;;;;;;;997.33;401.85;;;6.20;99.90;;;;;;4976347;28;20039;-86
2022/01/22 05:10:22;;;;;;;998.45;401.90;;;6.10;99.90;;;;;;4978012;28;20070;-89
2022/01/22 05:12:49;;;;;;;991.30;395.88;;;6.10;99.90;;;;;;4963937;28;20327;-84
2022/01/22 05:15:17;;;;;;;997.33;404.42;;;6.20;99.90;;;;;;4982262;28;20051;-84
2022/01/22 05:17:44;;;;;;;993.17;399.42;;;6.20;99.90;;;;;;4974437;28;20055;-84
2022/01/22 05:22:55;;;;;;;996.38;400.50;;;6.10;99.90;;;;;;4961663;28;20055;-84
2022/01/22 05:25:34;;;;;;;1001.60;405.17;;;6.10;99.90;;;;;;4971114;28;20053;-85
2022/01/22 05:38:32;;;;;;;990.50;389.83;;;6.20;99.90;;;;;;4941842;28;20545;-91
2022/01/22 05:40:58;;;;;;;982.85;390.48;;;6.20;99.90;;;;;;4973493;28;20057;-86
2022/01/22 05:43:23;;;;;;;990.50;397.33;;;6.20;99.90;;;;;;4973282;28;20047;-86
2022/01/22 05:45:49;;;;;;;991.10;395.92;;;6.20;99.90;;;;;;4973275;28;20035;-86
2022/01/22 05:48:15;;;;;;;990.60;394.73;;;6.20;99.90;;;;;;4970024;28;20046;-88
2022/01/22 05:50:54;;;;;;;995.28;401.25;;;6.20;99.90;;;;;;4969108;28;20624;-86
2022/01/22 06:01:18;;;;;;;994.67;402.13;;;6.20;99.90;;;;;;4971660;28;20146;-87
2022/01/22 06:03:44;;;;;;;999.40;405.00;;;6.20;99.90;;;;;;4970327;28;20180;-87
2022/01/22 06:06:11;;;;;;;996.03;400.73;;;6.10;99.90;;;;;;4970124;28;20150;-86
2022/01/22 06:08:46;;;;;;;995.53;397.42;;;6.10;99.90;;;;;;4970148;28;20075;-87
2022/01/22 06:11:12;;;;;;;996.17;396.83;;;6.20;99.90;;;;;;4961662;28;20473;-86
2022/01/22 06:13:46;;;;;;;1001.22;407.80;;;6.20;99.90;;;;;;4972437;28;20134;-87
2022/01/22 06:16:16;;;;;;;999.17;400.10;;;6.10;99.90;;;;;;4964366;28;20099;-86
2022/01/22 06:18:43;;;;;;;999.58;404.92;;;6.20;99.90;;;;;;4962128;28;20486;-86
2022/01/22 06:21:09;;;;;;;999.45;402.30;;;6.20;99.90;;;;;;4963791;28;20070;-87
2022/01/22 06:23:36;;;;;;;1001.42;404.38;;;6.20;99.90;;;;;;4968639;28;20112;-85
2022/01/22 06:26:02;;;;;;;995.63;395.15;;;6.20;99.90;;;;;;4968741;28;20384;-86
2022/01/22 06:28:28;;;;;;;1005.47;409.92;;;6.20;99.90;;;;;;4966654;28;20707;-88
2022/01/22 06:30:54;;;;;;;997.42;398.77;;;6.20;99.90;;;;;;4969265;28;20054;-90
2022/01/22 06:33:20;;;;;;;998.50;401.05;;;6.20;99.90;;;;;;4971567;28;20043;-93
2022/01/22 06:35:46;;;;;;;998.35;400.75;;;6.20;99.90;;;;;;4971323;28;20133;-87
2022/01/22 06:38:12;;;;;;;1001.53;404.27;;;6.20;99.90;;;;;;4968203;28;20057;-86
2022/01/22 06:43:04;;;;;;;987.90;389.83;;;6.20;99.90;;;;;;4972302;28;20439;-86
2022/01/22 06:45:30;;;;;;;1001.38;400.30;;;6.20;99.90;;;;;;4975474;28;20042;-90
2022/01/22 06:47:56;;;;;;;997.28;397.55;;;6.20;99.90;;;;;;4988368;28;20049;-89
2022/01/22 06:50:22;;;;;;;994.85;396.63;;;6.20;99.90;;;;;;4971219;28;20076;-85
2022/01/22 06:52:55;;;;;;;1005.50;405.00;;;6.20;99.90;;;;;;4969729;28;20054;-87
2022/01/22 06:55:27;;;;;;;999.63;399.77;;;6.20;99.90;;;;;;4976163;28;20057;-88
2022/01/22 06:57:53;;;;;;;1001.25;401.38;;;6.80;99.90;;;;;;4979347;28;20038;-87
2022/01/22 07:00:19;;;;;;;1004.88;407.05;;;6.10;99.90;;;;;;4964891;28;20066;-91
2022/01/22 07:02:44;;;;;;;1008.40;398.92;;;6.10;99.90;;;;;;4972134;28;20149;-87
2022/01/22 07:05:10;;;;;;;1005.97;411.98;;;6.10;99.90;;;;;;4967963;28;20086;-90
2022/01/22 07:07:36;;;;;;;1001.33;404.05;;;6.10;99.90;;;;;;4971216;28;20054;-85
2022/01/22 07:10:02;;;;;;;992.17;390.50;;;6.10;99.90;;;;;;4974851;28;20117;-85
2022/01/22 07:12:28;;;;;;;994.90;401.05;;;6.10;99.90;;;;;;4974022;28;20042;-86
2022/01/22 07:14:53;;;;;;;1000.53;404.58;;;6.10;99.90;;;;;;4990869;28;20117;-85
2022/01/22 07:17:19;;;;;;;997.28;399.65;;;6.00;99.90;;;;;;4993185;28;20058;-86
2022/01/22 07:19:45;;;;;;;999.40;404.85;;;6.00;99.90;;;;;;4977318;28;20101;-86
2022/01/22 07:22:33;;;;;;;1001.00;405.20;;;6.00;99.90;;;;;;4964862;28;20039;-85
2022/01/22 07:24:57;;;;;;;998.42;401.10;;;6.00;99.90;;;;;;4958044;28;20071;-88
2022/01/22 07:27:22;;;;;;;999.72;403.50;;;6.00;99.90;;;;;;4965705;28;20101;-87
2022/01/22 07:29:49;;;;;;;993.60;394.77;;;6.00;99.90;;;;;;4960655;28;20094;-87
2022/01/22 07:32:26;;;;;;;998.67;397.15;;;6.00;99.90;;;;;;4970080;28;20043;-90
2022/01/22 07:34:51;;;;;;;1000.13;403.38;;;6.00;99.90;;;;;;4968654;28;20100;-88
2022/01/22 07:37:17;;;;;;;981.03;390.67;;;6.00;99.90;;;;;;4954016;28;20121;-90
2022/01/22 07:39:42;;;;;;;992.47;392.45;;;6.00;99.90;;;;;;4956351;28;20043;-84
2022/01/22 07:42:08;;;;;;;980.88;390.95;;;6.00;99.90;;;;;;4962000;28;20081;-86
2022/01/22 07:44:34;;;;;;;991.65;397.92;;;6.00;99.90;;;;;;4974762;28;20031;-87
2022/01/22 07:46:59;;;;;;;985.88;390.40;;;5.90;99.90;;;;;;4968248;28;20208;-89
2022/01/22 07:49:25;;;;;;;993.97;399.40;;;5.90;99.90;;;;;;4968347;28;20047;-89
2022/01/22 07:51:51;;;;;;;993.25;397.10;;;5.90;99.90;;;;;;4974768;28;20035;-89
2022/01/22 07:54:17;;;;;;;989.33;392.55;;;5.90;99.90;;;;;;4989300;28;20027;-90
2022/01/22 07:56:42;;;;;;;1001.30;403.92;;;5.90;99.90;;;;;;4977180;28;20097;-92
2022/01/22 07:59:08;;;;;;;997.55;401.02;;;5.90;99.90;;;;;;4967058;28;20046;-90
2022/01/22 08:01:34;;;;;;;990.60;392.48;;;5.90;99.90;;;;;;4974361;28;20101;-88
2022/01/22 08:04:00;;;;;;;998.35;399.50;;;5.90;99.90;;;;;;4974070;28;20049;-86
2022/01/22 08:06:26;;;;;;;996.08;400.98;;;5.90;99.90;;;;;;4975112;28;20114;-86
2022/01/22 08:08:52;;;;;;;995.47;396.25;;;5.90;99.90;;;;;;4976385;28;20145;-88
2022/01/22 08:11:17;;;;;;;1002.22;406.08;;;5.90;99.90;;;;;;4983239;28;20042;-88
2022/01/22 08:13:43;;;;;;;993.95;394.73;;;5.90;99.90;;;;;;4982277;28;20050;-88
2022/01/22 08:16:08;;;;;;;994.63;395.08;;;5.90;99.90;;;;;;4981139;28;20434;-87
2022/01/22 08:18:34;;;;;;;999.42;387.85;;;5.90;99.90;;;;;;4969457;28;20806;-91
2022/01/22 08:21:00;;;;;;;1000.05;403.42;;;5.90;99.90;;;;;;4982695;28;20074;-87
2022/01/22 08:23:25;;;;;;;999.78;402.48;;;5.90;99.90;;;;;;4976789;28;20379;-91
2022/01/22 08:25:51;;;;;;;998.90;403.02;;;5.90;99.90;;;;;;4978446;28;20046;-89
2022/01/22 08:31:14;;;;;;;995.53;400.48;;;6.00;99.90;;;;;;4972863;28;20134;-90
2022/01/22 08:36:24;;;;;;;997.88;400.15;;;5.90;99.90;;;;;;4976034;28;20051;-92
2022/01/22 08:38:50;;;;;;;997.53;400.35;;;5.90;99.90;;;;;;4969760;28;20070;-93
2022/01/22 08:41:15;;;;;;;996.40;397.50;;;6.00;99.90;;;;;;4976800;28;20073;-89
2022/01/22 08:43:41;;;;;;;991.78;393.52;;;6.00;99.90;;;;;;4973166;28;20046;-88
2022/01/22 08:46:09;;;;;;;996.22;399.10;;;6.00;99.90;;;;;;4962146;28;20051;-87
2022/01/22 08:48:35;;;;;;;984.60;391.55;;;6.00;99.90;;;;;;4969352;28;20071;-89
2022/01/22 08:51:01;;;;;;;993.20;392.73;;;6.00;99.90;;;;;;4977254;28;20053;-91
2022/01/22 08:53:26;;;;;;;988.63;394.15;;;6.00;99.90;;;;;;4977781;28;20054;-89
2022/01/22 08:55:53;;;;;;;986.53;391.27;;;6.00;99.90;;;;;;4978807;28;20134;-87
2022/01/22 08:58:18;;;;;;;984.38;387.67;;;6.00;99.90;;;;;;4986178;28;20043;-89
2022/01/22 09:00:45;;;;;;;999.25;396.20;;;5.90;99.90;;;;;;4970224;28;20118;-92
2022/01/22 09:03:13;;;;;;;983.47;385.83;;;6.50;99.90;;;;;;4974182;28;20054;-91
2022/01/22 09:05:39;;;;;;;981.08;386.77;;;6.00;99.90;;;;;;4974117;28;20047;-90
2022/01/22 09:08:05;;;;;;;982.83;386.30;;;6.00;99.90;;;;;;4976842;28;20129;-91
2022/01/22 09:10:31;;;;;;;986.30;390.17;;;6.50;99.90;;;;;;4976508;28;20046;-90
2022/01/22 09:12:57;;;;;;;986.90;390.17;;;6.10;99.90;;;;;;4988076;28;20125;-88
2022/01/22 09:15:23;;;;;;;995.47;397.70;;;6.10;99.90;;;;;;4964498;28;20223;-90
2022/01/22 09:17:49;;;;;;;988.83;387.80;;;6.10;99.90;;;;;;4959898;28;20051;-91
2022/01/22 09:20:44;;;;;;;988.20;391.73;;;6.10;99.90;;;;;;4973972;28;20050;-91
2022/01/22 09:23:11;;;;;;;995.35;400.80;;;6.10;99.90;;;;;;4990738;28;20039;-92
2022/01/22 09:25:37;;;;;;;991.40;391.23;;;6.10;99.90;;;;;;4976681;28;20100;-91
2022/01/22 09:28:04;;;;;;;989.20;393.20;;;6.10;99.90;;;;;;4990167;28;20039;-91
2022/01/22 09:30:30;;;;;;;989.92;394.33;;;6.10;99.90;;;;;;4991808;28;20633;-92
2022/01/22 09:32:56;;;;;;;995.85;399.60;;;6.10;99.90;;;;;;4989346;28;20070;-91
2022/01/22 09:35:22;;;;;;;997.50;401.52;;;6.10;99.90;;;;;;4986960;28;20116;-90
2022/01/22 09:37:48;;;;;;;993.17;398.77;;;6.10;99.90;;;;;;4970047;28;20051;-91
2022/01/22 09:40:14;;;;;;;990.17;393.48;;;6.10;99.90;;;;;;4969628;28;20038;-91
2022/01/22 09:42:41;;;;;;;994.60;395.75;;;6.10;99.90;;;;;;4974746;28;20053;-90
2022/01/22 09:45:08;;;;;;;995.60;398.10;;;6.10;99.90;;;;;;4990876;28;20038;-90
2022/01/22 09:47:35;;;;;;;997.50;398.50;;;6.20;99.90;;;;;;4965624;28;20085;-91
2022/01/22 09:50:01;;;;;;;990.15;393.10;;;6.20;99.90;;;;;;4986289;28;20035;-91
2022/01/22 09:52:27;;;;;;;996.00;397.65;;;6.20;99.90;;;;;;4968731;28;20321;-92
2022/01/22 09:54:53;;;;;;;990.22;390.38;;;6.20;99.90;;;;;;4974878;28;20534;-92
2022/01/22 09:57:20;;;;;;;988.25;386.73;;;6.30;99.90;;;;;;4972571;28;20039;-91
2022/01/22 09:59:45;;;;;;;1001.67;406.08;;;6.30;99.90;;;;;;4973496;28;20074;-88
2022/01/22 10:02:20;;;;;;;999.40;399.80;;;6.20;99.90;;;;;;4972545;28;20086;-92
2022/01/22 10:04:52;;;;;;;996.03;398.50;;;6.30;99.90;;;;;;4975859;28;20518;-90
2022/01/22 10:07:22;;;;;;;995.85;398.20;;;6.30;99.90;;;;;;4959313;28;20062;-92
2022/01/22 10:10:05;;;;;;;1005.45;406.27;;;6.30;99.90;;;;;;4971187;28;20093;-91
2022/01/22 10:12:45;;;;;;;1000.63;401.55;;;6.30;99.90;;;;;;4972356;28;20046;-91
2022/01/22 10:15:18;;;;;;;1008.42;413.10;;;6.30;99.90;;;;;;4975856;28;20145;-94
2022/01/22 10:17:51;;;;;;;;;;;6.30;99.90;;;;;;4967729;28;20114;-90
2022/01/22 10:20:31;;;;;;;993.95;396.17;;;6.40;99.90;;;;;;4977405;28;19926;-92
2022/01/22 10:23:01;;;;;;;1022.35;409.30;;;6.40;99.90;;;;;;4972110;28;20049;-93
2022/01/22 10:25:38;;;;;;;1000.70;404.45;;;6.40;99.90;;;;;;4980725;28;20051;-90
2022/01/22 10:28:06;;;;;;;1006.95;410.35;;;6.40;99.90;;;;;;4980949;28;20042;-86
2022/01/22 10:30:43;;;;;;;1004.03;406.85;;;6.40;99.90;;;;;;4980846;28;20085;-91
2022/01/22 10:35:50;;;;;;;999.70;399.88;;;6.40;99.90;;;;;;4978532;28;20557;-91
2022/01/22 10:38:18;;;;;;;1009.80;411.38;;;6.40;99.90;;;;;;4983292;28;20322;-92
2022/01/22 10:40:45;;;;;;;1008.03;407.30;;;6.40;99.90;;;;;;4983960;28;20042;-92
2022/01/22 10:43:31;;;;;;;1004.90;404.00;;;6.40;99.90;;;;;;4986579;28;20062;-90
2022/01/22 10:46:31;;;;;;;982.42;388.20;;;6.40;99.90;;;;;;4982381;28;20491;-93
2022/01/22 10:49:00;;;;;;;973.17;383.75;;;6.40;99.90;;;;;;4965852;28;20125;-89
2022/01/22 10:51:27;;;;;;;968.17;374.23;;;6.40;99.90;;;;;;4976890;28;20114;-91
2022/01/22 10:53:59;;;;;;;979.83;386.77;;;6.40;99.90;;;;;;4973573;28;20054;-91
2022/01/22 10:56:27;;;;;;;979.85;386.20;;;6.40;99.90;;;;;;4976260;28;20042;-91
2022/01/22 10:59:05;;;;;;;976.95;380.75;;;7.10;99.90;;;;;;4988199;28;20053;-91
2022/01/22 11:01:55;;;;;;;979.80;386.45;;;6.40;99.90;;;;;;4971862;28;20051;-91
2022/01/22 11:04:26;;;;;;;976.50;381.83;;;6.40;99.90;;;;;;4981829;28;20051;-91
2022/01/22 11:06:55;;;;;;;;;;;6.50;99.90;;;;;;4984384;28;20103;-88
2022/01/22 11:09:22;;;;;;;978.28;384.10;;;6.50;99.90;;;;;;4972115;28;19934;-91
2022/01/22 11:11:48;;;;;;;981.65;387.90;;;6.40;99.90;;;;;;4970252;28;20544;-91
2022/01/22 11:14:15;;;;;;;988.55;393.33;;;6.50;99.90;;;;;;4972000;28;20431;-91
2022/01/22 11:16:43;;;;;;;981.58;386.88;;;6.90;99.90;;;;;;4991021;28;20074;-92
2022/01/22 11:19:10;;;;;;;990.42;393.95;;;6.50;99.90;;;;;;4984678;28;20038;-92
2022/01/22 11:21:40;;;;;;;989.92;390.50;;;6.50;99.90;;;;;;4991736;28;20093;-92
2022/01/22 11:24:09;;;;;;;996.10;397.67;;;6.50;99.90;;;;;;4979198;28;20058;-90
2022/01/22 11:26:38;;;;;;;997.65;401.30;;;6.50;99.90;;;;;;4995937;28;20048;-92
2022/01/22 11:29:04;;;;;;;996.50;397.10;;;6.50;99.90;;;;;;4978312;28;20054;-91
2022/01/22 11:31:32;;;;;;;1001.03;395.17;;;6.50;99.90;;;;;;4970633;28;20113;-91
2022/01/22 11:34:00;;;;;;;998.75;395.83;;;6.50;99.90;;;;;;4986959;28;20054;-90
2022/01/22 11:36:31;;;;;;;999.30;398.88;;;6.50;99.90;;;;;;4977462;28;20051;-91
2022/01/22 11:38:59;;;;;;;998.65;395.98;;;6.50;99.90;;;;;;4985750;28;20062;-90
2022/01/22 11:41:25;;;;;;;995.83;391.17;;;6.50;99.90;;;;;;4970240;28;20058;-91
2022/01/22 11:44:11;;;;;;;998.63;395.85;;;6.50;99.90;;;;;;4967421;28;20053;-91
2022/01/22 11:46:51;;;;;;;1000.63;400.63;;;6.50;99.90;;;;;;4980914;28;20039;-91
2022/01/22 11:49:24;;;;;;;1000.58;400.25;;;6.50;99.90;;;;;;4984765;28;20390;-91
2022/01/22 11:52:10;;;;;;;1004.90;405.60;;;6.50;99.90;;;;;;4978425;28;20155;-91
2022/01/22 11:55:01;;;;;;;999.15;400.52;;;6.50;99.90;;;;;;4975969;28;20050;-91
2022/01/22 11:57:32;;;;;;;1004.77;405.73;;;6.50;99.90;;;;;;4979611;28;20074;-91
2022/01/22 12:00:19;;;;;;;1007.22;409.75;;;6.50;99.90;;;;;;4991015;28;20860;-91
2022/01/22 12:03:05;;;;;;;1000.35;397.67;;;6.50;99.90;;;;;;4961059;28;20036;-91
2022/01/22 12:05:30;;;;;;;1006.55;404.90;;;6.50;99.90;;;;;;4957668;28;20054;-92
2022/01/22 12:07:58;;;;;;;1010.50;410.90;;;6.50;99.90;;;;;;4964991;28;20498;-91
2022/01/22 12:10:37;;;;;;;1011.53;409.00;;;6.50;99.90;;;;;;4976923;28;20046;-91
2022/01/22 12:16:07;;;;;;;1008.78;407.50;;;6.50;99.90;;;;;;4972202;28;20073;-90
2022/01/22 12:18:38;;;;;;;1013.35;412.63;;;6.50;99.90;;;;;;4973136;28;21301;-90
2022/01/22 12:23:32;;;;;;;1008.80;411.02;;;6.50;99.90;;;;;;4954100;29;20050;-91
2022/01/22 12:25:59;;;;;;;1011.15;409.08;;;6.50;99.90;;;;;;4962587;28;20051;-88
2022/01/22 12:28:39;;;;;;;1010.20;413.83;;;6.50;99.90;;;;;;4972266;28;20387;-89
2022/01/22 12:31:27;;;;;;;1012.13;409.52;;;6.50;99.90;;;;;;4972236;28;20150;-90
2022/01/22 12:33:54;;;;;;;1012.03;413.58;;;6.50;99.90;;;;;;4972891;28;20065;-90
2022/01/22 12:36:38;;;;;;;1009.45;408.92;;;6.50;99.90;;;;;;4973303;28;20099;-89
2022/01/22 12:39:17;;;;;;;1003.90;403.50;;;6.50;99.90;;;;;;4962497;28;20057;-92
2022/01/22 12:41:51;;;;;;;1001.33;397.60;;;6.50;99.90;;;;;;4956357;29;20055;-91
2022/01/22 12:46:49;;;;;;;;;;;6.50;99.90;;;;;;4976286;28;20047;-90
2022/01/22 12:49:15;;;;;;;1005.63;408.20;;;6.50;99.90;;;;;;4964591;28;19922;-91
2022/01/22 12:51:41;;;;;;;1005.03;405.80;;;6.50;99.90;;;;;;4955832;28;20101;-90
2022/01/22 12:54:06;;;;;;;1012.22;415.73;;;6.50;99.90;;;;;;4967741;28;20043;-90
2022/01/22 12:59:02;;;;;;;1009.03;409.13;;;6.50;99.90;;;;;;4972406;28;20062;-89
2022/01/22 13:01:30;;;;;;;1002.17;402.42;;;6.50;99.90;;;;;;4968381;28;20144;-88
2022/01/22 13:03:57;;;;;;;994.13;396.80;;;6.50;99.90;;;;;;4973126;28;20051;-89
2022/01/22 13:06:39;;;;;;;1004.53;407.13;;;6.50;99.90;;;;;;4972596;28;20418;-89
2022/01/22 13:09:06;;;;;;;1004.65;404.98;;;6.50;99.90;;;;;;4955729;28;20126;-90
2022/01/22 13:11:33;;;;;;;1004.55;406.13;;;6.50;99.90;;;;;;4955991;28;20043;-90
2022/01/22 13:13:59;;;;;;;998.80;396.75;;;6.50;99.90;;;;;;4971545;28;20047;-90
2022/01/22 13:16:25;;;;;;;1000.92;400.88;;;6.50;99.90;;;;;;4974272;28;20062;-91
2022/01/22 13:18:56;;;;;;;1010.45;413.05;;;6.50;99.90;;;;;;4975090;28;20045;-87
2022/01/22 13:21:23;;;;;;;1005.83;403.30;;;6.50;99.90;;;;;;4977581;28;20121;-93
2022/01/22 13:24:10;;;;;;;1007.90;409.30;;;6.50;99.90;;;;;;4977004;28;20106;-89
2022/01/22 13:26:43;;;;;;;1010.75;410.10;;;6.50;99.90;;;;;;4976044;28;20038;-90
2022/01/22 13:29:24;;;;;;;1007.30;407.70;;;6.50;99.90;;;;;;4970545;28;20098;-91
2022/01/22 13:49:00;;;;;;;1002.97;407.33;;;6.40;99.90;;;;;;4984513;28;20047;-89
2022/01/22 13:51:27;;;;;;;1009.38;413.00;;;6.40;99.90;;;;;;4982035;28;20046;-92
2022/01/22 13:53:54;;;;;;;1026.45;419.67;;;6.30;99.90;;;;;;4981052;28;20042;-93
2022/01/22 13:56:40;;;;;;;998.85;402.17;;;6.30;99.90;;;;;;4986106;28;20089;-92
2022/01/22 13:59:18;;;;;;;1001.50;404.40;;;6.30;99.90;;;;;;4961419;28;20466;-92
2022/01/22 14:02:07;;;;;;;1009.00;412.13;;;6.30;99.90;;;;;;4967256;28;20083;-91
2022/01/22 14:04:41;;;;;;;1002.58;402.67;;;6.30;99.90;;;;;;4982665;28;20046;-90
2022/01/22 14:07:13;;;;;;;1002.70;405.75;;;6.30;99.90;;;;;;4981419;28;20539;-92
2022/01/22 14:10:02;;;;;;;1010.92;407.30;;;6.30;99.90;;;;;;4984334;28;20050;-91
2022/01/22 14:12:36;;;;;;;1009.15;414.63;;;6.30;99.90;;;;;;4978886;28;20070;-93
2022/01/22 14:15:04;;;;;;;1007.50;412.70;;;6.30;99.90;;;;;;4979740;28;20415;-90
2022/01/22 14:17:38;;;;;;;1012.90;411.00;;;6.30;99.90;;;;;;4989425;28;20062;-91
2022/01/22 14:20:06;;;;;;;1037.10;420.50;;;6.30;99.90;;;;;;4982139;28;20047;-89
2022/01/22 14:22:51;;;;;;;1010.05;413.70;;;6.20;99.90;;;;;;4971008;28;20497;-91
2022/01/22 14:25:17;;;;;;;1000.00;404.13;;;6.20;99.90;;;;;;4973387;28;20462;-91
2022/01/22 14:27:43;;;;;;;1002.80;405.15;;;6.20;99.90;;;;;;4975216;28;20046;-91
2022/01/22 14:30:08;;;;;;;999.60;402.20;;;6.20;99.90;;;;;;4975277;28;20201;-91
2022/01/22 14:32:35;;;;;;;1003.05;406.25;;;6.10;99.90;;;;;;4965861;28;20046;-90
2022/01/22 14:35:17;;;;;;;1001.15;405.88;;;6.20;99.90;;;;;;4975220;28;20054;-91
2022/01/22 14:37:43;;;;;;;1001.88;408.88;;;6.10;99.90;;;;;;4984513;28;20671;-91
2022/01/22 14:45:59;;;;;;;990.10;396.77;;;6.10;99.90;;;;;;4977492;28;20444;-90
2022/01/22 14:48:25;;;;;;;992.53;398.02;;;6.00;99.90;;;;;;4977609;28;20055;-92
2022/01/22 14:50:52;;;;;;;993.33;400.55;;;6.00;99.90;;;;;;4976667;28;20041;-91